createdAt,value
2018-05-27T00:00:58.995Z,82.62
2018-05-27T00:03:28.675Z,83.39
2018-05-27T00:05:58.315Z,83.99
2018-05-27T00:08:27.955Z,84.56
2018-05-27T00:10:57.595Z,84.91
2018-05-27T00:13:27.263Z,84.59
2018-05-27T00:15:56.946Z,84.33
2018-05-27T00:18:26.581Z,84.24
2018-05-27T00:20:56.240Z,84.32
2018-05-27T00:23:25.902Z,84.32
2018-05-27T00:25:55.554Z,83.83
2018-05-27T00:28:25.242Z,83.64
2018-05-27T00:30:54.880Z,83.43
2018-05-27T00:33:24.556Z,83.59
2018-05-27T00:35:54.221Z,83.98
2018-05-27T00:38:23.854Z,84.54
2018-05-27T00:40:53.540Z,84.92
2018-05-27T00:43:23.179Z,84.85
2018-05-27T00:45:52.823Z,84.89
2018-05-27T00:48:22.467Z,85.49
2018-05-27T00:50:52.149Z,86.63
2018-05-27T00:53:21.251Z,86.96
2018-05-27T00:55:50.630Z,87.58
2018-05-27T00:58:19.995Z,87.40
2018-05-27T01:00:49.655Z,86.99
2018-05-27T01:03:19.310Z,86.70
2018-05-27T01:05:48.978Z,86.25
2018-05-27T01:08:18.340Z,85.97
2018-05-27T01:10:47.712Z,86.40
2018-05-27T01:13:17.098Z,86.71
2018-05-27T01:15:46.451Z,87.04
2018-05-27T01:18:16.147Z,87.19
2018-05-27T01:20:45.450Z,87.62
2018-05-27T01:23:15.092Z,87.69
2018-05-27T01:25:44.732Z,87.99
2018-05-27T01:28:14.362Z,88.69
2018-05-27T01:30:44.041Z,89.60
2018-05-27T01:33:13.714Z,89.26
2018-05-27T01:35:43.375Z,88.97
2018-05-27T01:38:13.030Z,88.71
2018-05-27T01:40:42.664Z,88.68
2018-05-27T01:43:12.346Z,88.92
2018-05-27T01:45:41.978Z,89.30
2018-05-27T01:48:11.626Z,89.63
2018-05-27T01:50:40.995Z,89.73
2018-05-27T01:53:10.634Z,90.00
2018-05-27T01:55:40.317Z,90.33
2018-05-27T01:58:09.959Z,90.42
2018-05-27T02:00:39.660Z,90.62
2018-05-27T02:03:09.062Z,90.95
2018-05-27T02:05:38.421Z,91.20
2018-05-27T02:08:08.114Z,91.10
2018-05-27T02:10:37.760Z,91.28
2018-05-27T02:13:07.402Z,91.73
2018-05-27T02:15:37.031Z,92.35
2018-05-27T02:18:06.403Z,91.84
2018-05-27T02:20:36.086Z,92.07
2018-05-27T02:23:05.724Z,92.05
2018-05-27T02:25:35.367Z,91.60
2018-05-27T02:28:05.002Z,92.11
2018-05-27T02:30:34.640Z,92.08
2018-05-27T02:33:04.048Z,92.60
2018-05-27T02:35:33.708Z,93.03
2018-05-27T02:38:03.383Z,93.50
2018-05-27T02:40:33.018Z,93.61
2018-05-27T02:43:02.664Z,93.95
2018-05-27T02:45:32.347Z,93.60
2018-05-27T02:48:01.990Z,93.48
2018-05-27T02:50:31.663Z,93.30
2018-05-27T02:53:01.023Z,93.27
2018-05-27T02:55:30.661Z,93.24
2018-05-27T02:58:00.345Z,92.80
2018-05-27T03:00:30.000Z,92.08
2018-05-27T03:02:59.631Z,91.49
2018-05-27T03:05:29.292Z,91.38
2018-05-27T03:07:58.940Z,91.41
2018-05-27T03:10:28.350Z,91.38
2018-05-27T03:12:57.143Z,91.49
2018-05-27T03:15:26.828Z,91.59
2018-05-27T03:17:56.481Z,91.31
2018-05-27T03:20:26.128Z,91.44
2018-05-27T03:22:55.812Z,91.46
2018-05-27T03:25:25.702Z,91.08
2018-05-27T03:27:55.383Z,90.60
2018-05-27T03:30:25.049Z,90.56
2018-05-27T03:32:54.708Z,90.48
2018-05-27T03:35:24.400Z,90.75
2018-05-27T03:37:54.073Z,90.91
2018-05-27T03:40:23.764Z,91.42
2018-05-27T03:42:53.139Z,91.35
2018-05-27T03:45:22.784Z,91.01
2018-05-27T03:47:52.460Z,90.55
2018-05-27T03:50:22.091Z,90.21
2018-05-27T03:52:51.780Z,89.70
2018-05-27T03:55:21.216Z,89.37
2018-05-27T03:57:50.854Z,88.73
2018-05-27T04:00:20.504Z,88.42
2018-05-27T04:02:50.147Z,87.89
2018-05-27T04:05:30.620Z,87.34
2018-05-27T04:08:11.234Z,86.83
2018-05-27T04:10:40.592Z,86.27
2018-05-27T04:13:10.258Z,85.75
2018-05-27T04:15:39.933Z,85.33
2018-05-27T04:18:09.583Z,84.58
2018-05-27T04:20:39.230Z,83.40
2018-05-27T04:23:08.880Z,82.14
2018-05-27T04:25:38.525Z,81.19
2018-05-27T04:28:08.202Z,80.31
2018-05-27T04:30:37.841Z,78.52
2018-05-27T04:33:07.492Z,76.84
2018-05-27T04:35:37.158Z,75.73
2018-05-27T04:38:06.797Z,75.07
2018-05-27T04:40:36.496Z,74.61
2018-05-27T04:43:06.140Z,73.99
2018-05-27T04:45:35.806Z,73.10
2018-05-27T04:48:05.441Z,71.49
2018-05-27T04:50:35.073Z,68.87
2018-05-27T04:53:04.492Z,64.97
2018-05-27T04:55:34.193Z,59.67
2018-05-27T04:58:03.846Z,55.74
2018-05-27T05:00:33.470Z,52.92
2018-05-27T05:03:03.454Z,51.02
2018-05-27T05:05:33.716Z,48.11
2018-05-27T05:08:03.942Z,43.99
2018-05-27T05:10:34.221Z,41.25
2018-05-27T05:13:04.454Z,38.87
2018-05-27T05:15:34.742Z,36.83
2018-05-27T05:18:04.974Z,35.43
2018-05-27T05:20:35.208Z,32.86
2018-05-27T05:23:05.203Z,31.51
2018-05-27T05:25:35.456Z,30.07
2018-05-27T05:28:05.737Z,28.67
2018-05-27T05:30:35.977Z,27.57
2018-05-27T05:33:06.255Z,26.70
2018-05-27T05:35:36.477Z,25.42
2018-05-27T05:38:06.753Z,25.97
2018-05-27T05:40:36.988Z,25.28
2018-05-27T05:43:06.962Z,24.70
2018-05-27T05:45:36.884Z,23.47
2018-05-27T05:48:06.810Z,23.25
2018-05-27T05:50:36.786Z,23.16
2018-05-27T05:53:06.717Z,22.46
2018-05-27T05:55:36.675Z,21.93
2018-05-27T05:58:06.608Z,22.16
2018-05-27T06:00:36.549Z,23.07
2018-05-27T06:03:06.276Z,22.88
2018-05-27T06:05:36.244Z,22.12
2018-05-27T06:08:06.252Z,21.26
2018-05-27T06:10:36.204Z,21.20
2018-05-27T06:13:06.127Z,20.47
2018-05-27T06:15:36.135Z,20.63
2018-05-27T06:18:06.056Z,20.35
2018-05-27T06:20:36.040Z,20.48
2018-05-27T06:23:06.025Z,21.16
2018-05-27T06:25:36.179Z,21.37
2018-05-27T06:28:06.113Z,22.41
2018-05-27T06:30:35.798Z,23.10
2018-05-27T06:33:05.731Z,22.99
2018-05-27T06:35:35.646Z,21.06
2018-05-27T06:38:05.704Z,20.32
2018-05-27T06:40:35.634Z,21.88
2018-05-27T06:43:05.587Z,21.12
2018-05-27T06:45:35.521Z,22.34
2018-05-27T06:48:05.763Z,23.68
2018-05-27T06:50:35.986Z,25.40
2018-05-27T06:53:06.206Z,26.81
2018-05-27T06:55:36.450Z,25.96
2018-05-27T06:58:06.725Z,25.68
2018-05-27T07:00:37.008Z,26.11
2018-05-27T07:03:07.229Z,25.42
2018-05-27T07:05:37.455Z,23.77
2018-05-27T07:08:07.724Z,22.24
2018-05-27T07:10:37.921Z,22.81
2018-05-27T07:13:07.915Z,22.71
2018-05-27T07:15:37.839Z,23.33
2018-05-27T07:18:07.770Z,23.78
2018-05-27T07:20:38.030Z,23.98
2018-05-27T07:23:08.231Z,25.55
2018-05-27T07:25:38.474Z,24.92
2018-05-27T07:28:08.426Z,23.81
2018-05-27T07:30:38.542Z,23.88
2018-05-27T07:33:08.518Z,24.69
2018-05-27T07:35:38.740Z,24.36
2018-05-27T07:38:09.048Z,24.25
2018-05-27T07:40:39.274Z,25.13
2018-05-27T07:43:09.528Z,25.03
2018-05-27T07:45:39.490Z,24.80
2018-05-27T07:48:09.714Z,25.33
2018-05-27T07:50:39.983Z,23.94
2018-05-27T07:53:10.218Z,24.61
2018-05-27T07:55:40.498Z,24.91
2018-05-27T07:58:10.455Z,23.80
2018-05-27T08:00:40.630Z,24.52
2018-05-27T08:03:10.851Z,23.26
2018-05-27T08:05:41.079Z,22.92
2018-05-27T08:08:10.787Z,21.44
2018-05-27T08:10:40.702Z,21.80
2018-05-27T08:13:10.652Z,21.23
2018-05-27T08:15:40.567Z,21.54
2018-05-27T08:18:10.211Z,21.18
2018-05-27T08:20:40.201Z,20.91
2018-05-27T08:23:10.123Z,19.22
2018-05-27T08:25:39.772Z,19.62
2018-05-27T08:28:09.697Z,20.02
2018-05-27T08:30:39.347Z,21.69
2018-05-27T08:33:09.307Z,21.67
2018-05-27T08:35:38.950Z,21.86
2018-05-27T08:38:08.891Z,20.42
2018-05-27T08:40:38.818Z,20.03
2018-05-27T08:43:08.739Z,18.85
2018-05-27T08:45:38.687Z,19.02
2018-05-27T08:48:08.613Z,18.54
2018-05-27T08:50:38.572Z,19.00
2018-05-27T08:53:08.508Z,19.77
2018-05-27T08:55:38.196Z,19.08
2018-05-27T08:58:07.831Z,18.96
2018-05-27T09:00:37.772Z,18.51
2018-05-27T09:03:07.703Z,18.96
2018-05-27T09:05:37.908Z,18.19
2018-05-27T09:08:08.196Z,18.54
2018-05-27T09:10:37.844Z,18.45
2018-05-27T09:13:07.247Z,17.66
2018-05-27T09:15:36.943Z,17.61
2018-05-27T09:18:06.583Z,18.35
2018-05-27T09:20:36.260Z,19.65
2018-05-27T09:23:05.918Z,20.80
2018-05-27T09:25:35.520Z,20.61
2018-05-27T09:28:05.450Z,20.88
2018-05-27T09:30:35.391Z,22.79
2018-05-27T09:33:05.135Z,24.51
2018-05-27T09:35:35.931Z,25.16
2018-05-27T09:38:05.895Z,25.86
2018-05-27T09:40:35.835Z,25.55
2018-05-27T09:43:05.788Z,25.87
2018-05-27T09:45:35.997Z,25.68
2018-05-27T09:48:06.205Z,23.82
2018-05-27T09:50:36.177Z,27.18
2018-05-27T09:53:06.116Z,27.80
2018-05-27T09:55:36.085Z,27.97
2018-05-27T09:58:06.063Z,28.83
2018-05-27T10:00:36.504Z,29.32
2018-05-27T10:03:06.480Z,29.54
2018-05-27T10:05:36.407Z,29.31
2018-05-27T10:08:06.397Z,29.07
2018-05-27T10:10:36.342Z,29.10
2018-05-27T10:13:06.538Z,30.05
2018-05-27T10:15:36.479Z,28.01
2018-05-27T10:18:06.429Z,28.28
2018-05-27T10:20:36.662Z,28.58
2018-05-27T10:23:06.863Z,29.62
2018-05-27T10:25:37.129Z,29.85
2018-05-27T10:28:07.060Z,28.09
2018-05-27T10:30:37.314Z,26.97
2018-05-27T10:33:07.462Z,28.31
2018-05-27T10:35:37.691Z,28.86
2018-05-27T10:38:07.929Z,28.61
2018-05-27T10:40:38.173Z,29.02
2018-05-27T10:43:08.200Z,28.52
2018-05-27T10:45:38.148Z,27.39
2018-05-27T10:48:08.094Z,26.48
2018-05-27T10:50:38.301Z,27.85
2018-05-27T10:53:08.554Z,29.18
2018-05-27T10:55:38.788Z,29.08
2018-05-27T10:58:09.042Z,29.92
2018-05-27T11:00:39.007Z,28.78
2018-05-27T11:03:08.939Z,29.17
2018-05-27T11:05:38.936Z,26.82
2018-05-27T11:08:09.349Z,26.92
2018-05-27T11:10:39.274Z,27.84
2018-05-27T11:13:09.520Z,28.46
2018-05-27T11:15:39.444Z,29.04
2018-05-27T11:18:09.686Z,28.20
2018-05-27T11:20:39.623Z,28.66
2018-05-27T11:23:09.566Z,29.56
2018-05-27T11:25:39.527Z,28.62
2018-05-27T11:28:09.456Z,29.26
2018-05-27T11:30:39.436Z,28.72
2018-05-27T11:33:09.376Z,28.86
2018-05-27T11:35:39.323Z,30.99
2018-05-27T11:38:09.308Z,30.34
2018-05-27T11:40:39.234Z,30.26
2018-05-27T11:43:09.165Z,30.08
2018-05-27T11:45:39.103Z,31.35
2018-05-27T11:48:09.035Z,30.66
2018-05-27T11:50:39.363Z,30.41
2018-05-27T11:53:09.310Z,30.87
2018-05-27T11:55:39.535Z,29.18
2018-05-27T11:58:09.455Z,31.07
2018-05-27T12:00:39.656Z,29.40
2018-05-27T12:03:09.618Z,29.62
2018-05-27T12:05:39.553Z,29.50
2018-05-27T12:08:09.558Z,29.75
2018-05-27T12:10:39.566Z,30.32
2018-05-27T12:13:09.528Z,29.60
2018-05-27T12:15:39.733Z,31.00
2018-05-27T12:18:09.669Z,30.60
2018-05-27T12:20:39.868Z,30.19
2018-05-27T12:23:10.066Z,29.79
2018-05-27T12:25:42.026Z,28.92
2018-05-27T12:28:11.965Z,29.43
2018-05-27T12:30:41.906Z,28.89
2018-05-27T12:33:11.850Z,29.90
2018-05-27T12:35:42.084Z,29.17
2018-05-27T12:38:12.052Z,29.37
2018-05-27T12:40:41.984Z,30.28
2018-05-27T12:43:11.907Z,28.35
2018-05-27T12:45:42.143Z,28.35
2018-05-27T12:48:12.122Z,27.91
2018-05-27T12:50:42.124Z,28.09
2018-05-27T12:53:12.059Z,27.83
2018-05-27T12:55:42.017Z,29.05
2018-05-27T12:58:11.959Z,28.73
2018-05-27T13:00:42.168Z,29.12
2018-05-27T13:03:12.099Z,29.84
2018-05-27T13:05:42.297Z,28.94
2018-05-27T13:08:12.601Z,28.86
2018-05-27T13:10:42.839Z,27.97
2018-05-27T13:13:12.921Z,27.87
2018-05-27T13:15:42.863Z,27.95
2018-05-27T13:18:13.132Z,27.80
2018-05-27T13:20:43.089Z,28.54
2018-05-27T13:23:13.040Z,29.38
2018-05-27T13:25:43.273Z,28.79
2018-05-27T13:28:13.243Z,27.61
2018-05-27T13:30:43.183Z,27.88
2018-05-27T13:33:13.441Z,27.00
2018-05-27T13:35:43.428Z,27.98
2018-05-27T13:38:13.356Z,27.48
2018-05-27T13:40:43.590Z,27.63
2018-05-27T13:43:14.033Z,28.17
2018-05-27T13:45:44.245Z,28.60
2018-05-27T13:48:14.235Z,29.74
2018-05-27T13:50:44.172Z,31.37
2018-05-27T13:53:14.128Z,29.67
2018-05-27T13:55:44.064Z,30.16
2018-05-27T13:58:14.268Z,29.98
2018-05-27T14:00:44.241Z,30.40
2018-05-27T14:03:14.443Z,31.21
2018-05-27T14:05:44.675Z,31.70
2018-05-27T14:08:14.625Z,32.67
2018-05-27T14:10:44.566Z,31.53
2018-05-27T14:13:14.545Z,32.62
2018-05-27T14:15:44.751Z,31.87
2018-05-27T14:18:14.717Z,31.78
2018-05-27T14:20:44.643Z,32.86
2018-05-27T14:23:14.573Z,33.89
2018-05-27T14:25:44.531Z,32.44
2018-05-27T14:28:14.738Z,32.31
2018-05-27T14:30:44.481Z,32.39
2018-05-27T14:33:14.480Z,32.32
2018-05-27T14:35:44.944Z,32.47
2018-05-27T14:38:14.900Z,34.09
2018-05-27T14:40:44.882Z,35.17
2018-05-27T14:43:14.859Z,35.26
2018-05-27T14:45:45.016Z,34.73
2018-05-27T14:48:15.003Z,34.00
2018-05-27T14:50:44.941Z,33.75
2018-05-27T14:53:15.183Z,33.39
2018-05-27T14:55:45.127Z,33.33
2018-05-27T14:58:15.123Z,33.86
2018-05-27T15:00:45.064Z,34.56
2018-05-27T15:03:15.014Z,35.45
2018-05-27T15:05:44.968Z,36.47
2018-05-27T15:08:14.896Z,36.16
2018-05-27T15:10:45.148Z,36.76
2018-05-27T15:13:15.100Z,37.43
2018-05-27T15:15:45.064Z,38.51
2018-05-27T15:18:15.008Z,39.05
2018-05-27T15:20:44.947Z,38.92
2018-05-27T15:23:15.206Z,39.09
2018-05-27T15:25:45.155Z,38.33
2018-05-27T15:28:15.149Z,37.76
2018-05-27T15:30:45.374Z,38.18
2018-05-27T15:33:15.600Z,38.09
2018-05-27T15:35:45.860Z,37.81
2018-05-27T15:38:15.851Z,37.74
2018-05-27T15:40:45.876Z,38.11
2018-05-27T15:43:15.816Z,37.94
2018-05-27T15:45:46.040Z,36.03
2018-05-27T15:48:16.017Z,35.23
2018-05-27T15:50:46.241Z,35.91
2018-05-27T15:53:16.226Z,35.13
2018-05-27T15:55:46.161Z,35.50
2018-05-27T15:58:16.163Z,35.99
2018-05-27T16:00:46.094Z,36.62
2018-05-27T16:03:16.060Z,35.80
2018-05-27T16:05:46.081Z,35.56
2018-05-27T16:08:16.309Z,36.20
2018-05-27T16:10:46.562Z,36.22
2018-05-27T16:13:16.500Z,35.82
2018-05-27T16:15:46.727Z,35.50
2018-05-27T16:18:16.940Z,34.99
2018-05-27T16:20:47.145Z,34.62
2018-05-27T16:23:17.397Z,35.03
2018-05-27T16:25:47.326Z,34.92
2018-05-27T16:28:17.608Z,34.81
2018-05-27T16:30:47.538Z,35.18
2018-05-27T16:33:17.493Z,34.05
2018-05-27T16:35:47.415Z,34.34
2018-05-27T16:38:17.347Z,33.53
2018-05-27T16:40:47.621Z,32.84
2018-05-27T16:43:17.772Z,33.22
2018-05-27T16:45:47.736Z,32.99
2018-05-27T16:48:17.876Z,33.99
2018-05-27T16:50:47.794Z,33.93
2018-05-27T16:53:17.774Z,33.74
2018-05-27T16:55:47.694Z,33.79
2018-05-27T16:58:17.642Z,34.70
2018-05-27T17:00:47.859Z,35.01
2018-05-27T17:03:17.792Z,34.57
2018-05-27T17:05:47.760Z,34.57
2018-05-27T17:08:17.715Z,34.83
2018-05-27T17:10:47.692Z,34.19
2018-05-27T17:13:17.906Z,35.23
2018-05-27T17:15:47.857Z,34.69
2018-05-27T17:18:17.792Z,35.35
2018-05-27T17:20:47.723Z,35.16
2018-05-27T17:23:17.695Z,35.60
2018-05-27T17:25:47.663Z,35.62
2018-05-27T17:28:17.705Z,36.11
2018-05-27T17:30:47.831Z,36.13
2018-05-27T17:33:17.778Z,36.50
2018-05-27T17:35:47.999Z,36.73
2018-05-27T17:38:18.216Z,37.13
2018-05-27T17:40:48.465Z,37.13
2018-05-27T17:43:18.403Z,37.84
2018-05-27T17:45:48.385Z,38.16
2018-05-27T17:48:18.582Z,38.40
2018-05-27T17:50:48.789Z,38.46
2018-05-27T17:53:19.069Z,39.02
2018-05-27T17:55:48.445Z,39.41
2018-05-27T17:58:18.364Z,39.98
2018-05-27T18:00:48.359Z,40.00
2018-05-27T18:03:18.356Z,40.29
2018-05-27T18:05:48.920Z,40.76
2018-05-27T18:08:19.130Z,41.32
2018-05-27T18:10:48.492Z,41.58
2018-05-27T18:13:18.144Z,42.17
2018-05-27T18:15:47.776Z,42.47
2018-05-27T18:18:17.150Z,42.81
2018-05-27T18:20:46.512Z,42.82
2018-05-27T18:23:16.154Z,43.34
2018-05-27T18:25:45.511Z,43.60
2018-05-27T18:28:14.871Z,43.95
2018-05-27T18:30:44.553Z,44.40
2018-05-27T18:33:13.910Z,44.76
2018-05-27T18:35:43.259Z,45.16
2018-05-27T18:38:12.652Z,45.67
2018-05-27T18:40:42.183Z,46.00
2018-05-27T18:43:11.589Z,46.35
2018-05-27T18:45:41.585Z,47.12
2018-05-27T18:48:11.714Z,47.49
2018-05-27T18:50:41.932Z,47.73
2018-05-27T18:53:11.878Z,48.51
2018-05-27T18:55:41.218Z,48.81
2018-05-27T18:58:11.188Z,49.30
2018-05-27T19:00:41.178Z,49.90
2018-05-27T19:03:11.127Z,50.55
2018-05-27T19:05:41.083Z,50.98
2018-05-27T19:08:10.505Z,51.31
2018-05-27T19:10:40.466Z,51.59
2018-05-27T19:13:10.529Z,52.01
2018-05-27T19:15:40.343Z,52.62
2018-05-27T19:18:09.730Z,53.29
2018-05-27T19:20:39.085Z,53.78
2018-05-27T19:23:08.459Z,54.45
2018-05-27T19:25:37.855Z,54.90
2018-05-27T19:28:07.228Z,55.84
2018-05-27T19:30:36.602Z,56.52
2018-05-27T19:33:05.950Z,57.26
2018-05-27T19:35:35.313Z,57.90
2018-05-27T19:38:04.730Z,58.56
2018-05-27T19:40:34.106Z,58.89
2018-05-27T19:43:03.474Z,59.33
2018-05-27T19:45:32.832Z,59.85
2018-05-27T19:48:03.081Z,60.42
2018-05-27T19:50:32.774Z,60.74
2018-05-27T19:53:02.136Z,61.25
2018-05-27T19:55:31.519Z,61.47
2018-05-27T19:58:00.884Z,61.95
2018-05-27T20:00:30.255Z,62.40
2018-05-27T20:02:59.665Z,63.03
2018-05-27T20:05:28.724Z,63.54
2018-05-27T20:07:58.099Z,64.09
2018-05-27T20:10:27.462Z,64.56
2018-05-27T20:12:56.838Z,65.34
2018-05-27T20:15:26.239Z,65.52
2018-05-27T20:17:55.595Z,65.92
2018-05-27T20:20:24.956Z,66.30
2018-05-27T20:22:54.315Z,66.35
2018-05-27T20:25:23.674Z,66.32
2018-05-27T20:27:53.092Z,66.43
2018-05-27T20:30:22.471Z,66.57
2018-05-27T20:32:51.841Z,66.85
2018-05-27T20:35:21.563Z,67.02
2018-05-27T20:37:51.192Z,67.20
2018-05-27T20:40:20.834Z,67.26
2018-05-27T20:42:50.192Z,67.13
2018-05-27T20:45:19.534Z,67.33
2018-05-27T20:47:48.948Z,67.40
2018-05-27T20:50:18.328Z,67.44
2018-05-27T20:52:47.711Z,67.69
2018-05-27T20:55:17.084Z,67.96
2018-05-27T20:57:46.488Z,67.95
2018-05-27T21:00:15.895Z,68.00
2018-05-27T21:02:45.272Z,68.17
2018-05-27T21:05:14.931Z,68.32
2018-05-27T21:07:44.320Z,68.45
2018-05-27T21:10:13.680Z,68.45
2018-05-27T21:12:43.110Z,68.62
2018-05-27T21:15:12.783Z,68.85
2018-05-27T21:17:42.160Z,68.82
2018-05-27T21:20:11.566Z,69.09
2018-05-27T21:22:40.927Z,69.21
2018-05-27T21:25:10.288Z,69.26
2018-05-27T21:27:39.684Z,69.22
2018-05-27T21:30:09.057Z,69.19
2018-05-27T21:32:38.448Z,69.16
2018-05-27T21:35:07.848Z,68.82
2018-05-27T21:37:37.206Z,68.57
2018-05-27T21:40:06.615Z,68.72
2018-05-27T21:42:35.756Z,68.84
2018-05-27T21:45:05.068Z,68.43
2018-05-27T21:47:34.514Z,68.06
2018-05-27T21:50:03.317Z,67.75
2018-05-27T21:52:32.680Z,67.40
2018-05-27T21:55:02.053Z,67.21
2018-05-27T21:57:31.456Z,67.08
2018-05-27T22:00:00.863Z,67.06
2018-05-27T22:02:30.287Z,66.98
2018-05-27T22:04:59.651Z,66.87
2018-05-27T22:07:29.009Z,66.95
2018-05-27T22:09:58.375Z,66.95
2018-05-27T22:12:27.789Z,66.94
2018-05-27T22:14:57.143Z,66.93
2018-05-27T22:17:26.510Z,67.10
2018-05-27T22:19:55.904Z,66.89
2018-05-27T22:22:25.276Z,67.01
2018-05-27T22:24:54.705Z,67.09
2018-05-27T22:27:24.066Z,67.22
2018-05-27T22:29:53.432Z,67.36
2018-05-27T22:32:22.777Z,67.63
2018-05-27T22:34:52.150Z,67.67
2018-05-27T22:37:21.569Z,67.78
2018-05-27T22:39:51.045Z,67.84
2018-05-27T22:42:20.415Z,67.66
2018-05-27T22:44:49.792Z,67.73
2018-05-27T22:47:19.163Z,67.80
2018-05-27T22:49:48.595Z,67.92
2018-05-27T22:52:17.970Z,67.82
2018-05-27T22:54:47.616Z,68.00
2018-05-27T22:57:17.075Z,68.00
2018-05-27T22:59:46.716Z,67.99
2018-05-27T23:02:16.322Z,68.00
2018-05-27T23:04:46.062Z,68.28
2018-05-27T23:07:15.714Z,68.27
2018-05-27T23:09:45.386Z,68.45
2018-05-27T23:12:15.027Z,68.59
2018-05-27T23:14:44.711Z,68.60
2018-05-27T23:17:14.363Z,68.67
2018-05-27T23:19:44.058Z,68.82
2018-05-27T23:22:13.783Z,68.91
2018-05-27T23:24:43.179Z,69.05
2018-05-27T23:27:12.946Z,69.19
2018-05-27T23:29:42.612Z,69.35
2018-05-27T23:32:12.276Z,69.30
2018-05-27T23:34:41.964Z,69.42
2018-05-27T23:37:11.663Z,69.32
2018-05-27T23:39:41.375Z,69.37
2018-05-27T23:42:11.111Z,69.31
2018-05-27T23:44:40.746Z,69.38
2018-05-27T23:47:10.386Z,69.48
2018-05-27T23:49:40.016Z,69.31
2018-05-27T23:52:09.703Z,69.34
2018-05-27T23:54:39.365Z,69.06
2018-05-27T23:57:09.055Z,69.07
2018-05-27T23:59:38.696Z,69.10
